createdAt,value
2022-11-05T00:00:54.942Z,1.50
2022-11-05T00:06:15.451Z,2.10
2022-11-05T00:11:40.119Z,1.50
2022-11-05T00:16:45.903Z,1.40
2022-11-05T00:22:06.190Z,1.30
2022-11-05T00:27:10.835Z,1.30
2022-11-05T00:32:14.285Z,2.03
2022-11-05T00:37:17.271Z,1.57
2022-11-05T00:42:39.083Z,1.97
2022-11-05T00:48:00.971Z,2.20
2022-11-05T00:53:04.540Z,2.23
2022-11-05T00:58:10.439Z,2.03
2022-11-05T01:03:15.837Z,2.53
2022-11-05T01:08:21.671Z,2.43
2022-11-05T01:13:28.121Z,3.27
2022-11-05T01:18:31.250Z,2.87
2022-11-05T01:23:34.408Z,2.57
2022-11-05T01:28:39.599Z,2.80
2022-11-05T01:33:43.138Z,2.77
2022-11-05T01:38:46.572Z,2.70
2022-11-05T01:43:54.647Z,3.00
2022-11-05T01:49:03.466Z,2.70
2022-11-05T01:54:09.934Z,2.83
2022-11-05T01:59:17.864Z,2.70
2022-11-05T02:04:29.396Z,3.40
2022-11-05T02:09:39.849Z,2.57
2022-11-05T02:14:44.269Z,2.93
2022-11-05T02:20:17.631Z,3.20
2022-11-05T02:25:41.500Z,2.40
2022-11-05T02:30:51.852Z,2.60
2022-11-05T02:36:07.849Z,2.80
2022-11-05T02:41:19.136Z,3.60
2022-11-05T02:46:34.348Z,3.40
2022-11-05T02:51:47.601Z,2.63
2022-11-05T02:56:54.663Z,3.10
2022-11-05T03:02:00.786Z,3.13
2022-11-05T03:07:28.102Z,2.87
2022-11-05T03:12:40.632Z,3.20
2022-11-05T03:17:54.803Z,3.10
2022-11-05T03:23:06.467Z,2.77
2022-11-05T03:28:12.324Z,3.40
2022-11-05T03:33:22.917Z,2.90
2022-11-05T03:38:30.072Z,2.80
2022-11-05T03:43:38.478Z,3.03
2022-11-05T03:48:48.621Z,3.07
2022-11-05T03:53:57.328Z,2.63
2022-11-05T03:59:01.860Z,2.40
2022-11-05T04:04:07.783Z,2.87
2022-11-05T04:09:29.166Z,2.90
2022-11-05T04:14:32.476Z,3.17
2022-11-05T04:19:55.132Z,2.80
2022-11-05T04:24:58.425Z,2.80
2022-11-05T04:30:20.332Z,2.90
2022-11-05T04:35:25.256Z,2.83
2022-11-05T04:40:28.971Z,2.70
2022-11-05T04:45:34.460Z,3.00
2022-11-05T04:50:39.400Z,3.00
2022-11-05T04:55:42.512Z,3.13
2022-11-05T05:00:45.919Z,2.67
2022-11-05T05:05:53.719Z,2.90
2022-11-05T05:10:57.512Z,2.77
2022-11-05T05:16:01.108Z,2.73
2022-11-05T05:21:23.692Z,2.97
2022-11-05T05:26:27.334Z,3.20
2022-11-05T05:31:30.481Z,2.80
2022-11-05T05:36:35.498Z,2.80
2022-11-05T05:41:38.747Z,3.43
2022-11-05T05:46:44.658Z,3.40
2022-11-05T05:51:50.863Z,3.30
2022-11-05T05:56:54.112Z,3.37
2022-11-05T06:01:57.360Z,4.00
2022-11-05T06:07:02.080Z,4.00
2022-11-05T06:12:06.032Z,4.07
2022-11-05T06:17:09.797Z,4.37
2022-11-05T06:22:15.088Z,5.50
2022-11-05T06:27:18.125Z,5.93
2022-11-05T06:32:21.358Z,5.97
2022-11-05T06:37:25.905Z,5.90
2022-11-05T06:42:29.820Z,5.57
2022-11-05T06:47:32.966Z,5.83
2022-11-05T06:52:41.078Z,6.60
2022-11-05T06:57:44.709Z,5.37
2022-11-05T07:02:48.336Z,5.40
2022-11-05T07:07:53.222Z,5.53
2022-11-05T07:12:56.351Z,5.57
2022-11-05T07:18:01.666Z,6.03
2022-11-05T07:23:08.311Z,5.80
2022-11-05T07:28:14.737Z,6.47
2022-11-05T07:33:18.303Z,6.60
2022-11-05T07:38:23.296Z,6.87
2022-11-05T07:43:27.183Z,7.00
2022-11-05T07:48:30.549Z,7.13
2022-11-05T07:53:34.994Z,7.10
2022-11-05T07:58:38.302Z,6.83
2022-11-05T08:03:41.611Z,7.33
2022-11-05T08:08:49.131Z,7.17
2022-11-05T08:13:52.410Z,7.07
2022-11-05T08:18:55.712Z,7.37
2022-11-05T08:24:00.209Z,6.90
2022-11-05T08:29:03.365Z,6.60
2022-11-05T08:34:06.706Z,6.80
2022-11-05T08:39:16.722Z,7.70
2022-11-05T08:44:20.488Z,7.03
2022-11-05T08:49:26.575Z,6.57
2022-11-05T08:54:31.203Z,6.30
2022-11-05T08:59:34.564Z,6.07
2022-11-05T09:04:37.849Z,5.47
2022-11-05T09:09:42.291Z,5.70
2022-11-05T09:14:45.379Z,5.03
2022-11-05T09:19:48.814Z,5.10
2022-11-05T09:24:55.908Z,4.97
2022-11-05T09:29:59.156Z,4.73
2022-11-05T09:35:02.454Z,4.87
2022-11-05T09:40:08.615Z,4.80
2022-11-05T09:45:18.137Z,4.87
2022-11-05T09:50:26.186Z,4.50
2022-11-05T09:55:33.633Z,4.70
2022-11-05T10:00:36.973Z,4.37
2022-11-05T10:05:41.638Z,3.87
2022-11-05T10:10:49.646Z,4.17
2022-11-05T10:16:02.517Z,5.00
2022-11-05T10:21:06.667Z,4.20
2022-11-05T10:26:17.312Z,4.53
2022-11-05T10:31:23.829Z,4.03
2022-11-05T10:36:29.501Z,4.03
2022-11-05T10:41:52.933Z,4.30
2022-11-05T10:47:07.779Z,4.30
2022-11-05T10:52:21.956Z,5.00
2022-11-05T10:57:31.992Z,5.13
2022-11-05T11:02:37.120Z,5.63
2022-11-05T11:07:40.431Z,5.97
2022-11-05T11:12:45.648Z,5.20
2022-11-05T11:17:49.069Z,5.10
2022-11-05T11:23:11.660Z,4.97
2022-11-05T11:28:22.572Z,3.90
2022-11-05T11:33:29.598Z,3.77
2022-11-05T11:38:35.927Z,3.73
2022-11-05T11:43:43.712Z,3.40
2022-11-05T11:48:48.155Z,3.83
2022-11-05T11:53:54.108Z,3.33
2022-11-05T11:59:02.836Z,3.50
2022-11-05T12:04:18.128Z,3.97
2022-11-05T12:09:30.722Z,3.60
2022-11-05T12:14:46.808Z,3.43
2022-11-05T12:20:18.019Z,3.40
2022-11-05T12:25:29.048Z,3.13
2022-11-05T12:30:42.287Z,3.77
2022-11-05T12:35:58.273Z,3.27
2022-11-05T12:41:22.146Z,3.40
2022-11-05T12:46:33.512Z,3.27
2022-11-05T12:51:49.238Z,3.03
2022-11-05T12:56:55.399Z,2.67
2022-11-05T13:02:09.509Z,2.67
2022-11-05T13:07:18.276Z,3.03
2022-11-05T13:12:25.706Z,3.20
2022-11-05T13:17:35.458Z,3.33
2022-11-05T13:22:41.652Z,3.40
2022-11-05T13:27:51.928Z,2.87
2022-11-05T13:32:59.863Z,2.80
2022-11-05T13:38:25.107Z,2.50
2022-11-05T13:44:09.596Z,3.50
2022-11-05T13:49:46.731Z,3.07
2022-11-05T13:55:28.564Z,3.23
2022-11-05T14:00:36.345Z,3.20
2022-11-05T14:05:42.821Z,3.23
2022-11-05T14:10:59.797Z,2.90
2022-11-05T14:16:06.437Z,2.30
2022-11-05T14:21:32.675Z,2.50
2022-11-05T14:26:37.438Z,3.03
2022-11-05T14:37:27.584Z,3.10
2022-11-05T14:42:32.681Z,3.43
2022-11-05T14:47:39.897Z,2.70
2022-11-05T14:52:53.212Z,2.60
2022-11-05T14:58:20.576Z,2.87
2022-11-05T15:03:50.569Z,2.50
2022-11-05T15:08:59.596Z,2.40
2022-11-05T15:14:07.373Z,2.50
2022-11-05T15:19:19.257Z,2.40
2022-11-05T15:24:23.413Z,2.37
2022-11-05T15:29:31.171Z,2.87
2022-11-05T15:34:35.984Z,2.63
2022-11-05T15:39:42.602Z,2.60
2022-11-05T15:44:49.058Z,2.00
2022-11-05T15:49:54.656Z,2.40
2022-11-05T15:55:19.255Z,2.80
2022-11-05T16:00:26.472Z,2.40
2022-11-05T16:05:34.636Z,3.00
2022-11-05T16:10:39.905Z,2.60
2022-11-05T16:15:54.784Z,2.90
2022-11-05T16:21:02.524Z,2.80
2022-11-05T16:26:05.823Z,2.60
2022-11-05T16:31:10.280Z,2.77
2022-11-05T16:36:13.626Z,3.00
2022-11-05T16:41:18.153Z,4.03
2022-11-05T16:46:23.853Z,3.33
2022-11-05T16:51:28.563Z,3.67
2022-11-05T16:56:31.914Z,3.80
2022-11-05T17:01:38.346Z,3.70
2022-11-05T17:06:43.879Z,3.97
2022-11-05T17:11:47.036Z,3.83
2022-11-05T17:16:55.002Z,3.90
2022-11-05T17:21:58.111Z,3.97
2022-11-05T17:27:01.121Z,3.87
2022-11-05T17:32:06.491Z,3.87
2022-11-05T17:37:09.555Z,3.90
2022-11-05T17:42:12.564Z,4.00
2022-11-05T17:47:17.183Z,3.87
2022-11-05T17:52:20.584Z,3.30
2022-11-05T17:57:23.891Z,3.47
2022-11-05T18:02:29.726Z,3.60
2022-11-05T18:07:32.887Z,3.43
2022-11-05T18:12:36.348Z,3.17
2022-11-05T18:17:41.041Z,3.13
2022-11-05T18:22:44.561Z,2.70
2022-11-05T18:27:47.767Z,3.17
2022-11-05T18:32:52.237Z,3.50
2022-11-05T18:37:55.534Z,3.23
2022-11-05T18:42:58.635Z,3.20
2022-11-05T18:48:03.798Z,3.50
2022-11-05T18:53:07.143Z,3.30
2022-11-05T18:58:10.606Z,3.20
2022-11-05T19:03:15.284Z,3.90
2022-11-05T19:08:18.384Z,3.60
2022-11-05T19:13:21.518Z,3.53
2022-11-05T19:18:26.196Z,3.53
2022-11-05T19:23:29.351Z,3.37
2022-11-05T19:28:32.435Z,3.33
2022-11-05T19:33:37.831Z,3.97
2022-11-05T19:38:41.655Z,3.23
2022-11-05T19:43:45.449Z,3.77
2022-11-05T19:48:50.280Z,3.97
2022-11-05T19:53:55.296Z,3.70
2022-11-05T19:58:59.719Z,4.10
2022-11-05T20:04:04.932Z,4.30
2022-11-05T20:09:26.034Z,4.13
2022-11-05T20:14:29.756Z,3.80
2022-11-05T20:19:35.179Z,4.30
2022-11-05T20:24:38.203Z,3.60
2022-11-05T20:29:41.238Z,4.53
2022-11-05T20:34:45.929Z,4.30
2022-11-05T20:39:49.024Z,3.90
2022-11-05T20:44:52.129Z,4.30
2022-11-05T20:49:58.508Z,4.33
2022-11-05T20:55:02.295Z,4.33
2022-11-05T21:00:07.566Z,4.83
2022-11-05T21:05:12.522Z,4.43
2022-11-05T21:10:15.622Z,4.40
2022-11-05T21:15:20.521Z,4.20
2022-11-05T21:20:25.172Z,3.77
2022-11-05T21:25:28.538Z,4.13
2022-11-05T21:30:31.974Z,4.20
2022-11-05T21:35:40.396Z,4.47
2022-11-05T21:40:44.105Z,4.37
2022-11-05T21:45:47.154Z,3.77
2022-11-05T21:51:11.828Z,3.90
2022-11-05T21:56:48.098Z,4.73
2022-11-05T22:02:01.796Z,4.20
2022-11-05T22:07:07.977Z,3.93
2022-11-05T22:12:12.143Z,3.97
2022-11-05T22:17:15.580Z,3.83
2022-11-05T22:22:20.464Z,3.93
2022-11-05T22:27:23.768Z,3.87
2022-11-05T22:32:26.900Z,4.10
2022-11-05T22:37:32.011Z,3.57
2022-11-05T22:42:35.182Z,4.03
2022-11-05T22:47:38.552Z,3.17
2022-11-05T22:52:43.098Z,2.90
2022-11-05T22:57:46.203Z,3.50
2022-11-05T23:02:49.331Z,3.57
2022-11-05T23:08:11.791Z,3.23
2022-11-05T23:13:14.873Z,3.40
2022-11-05T23:18:35.389Z,3.83
2022-11-05T23:23:57.630Z,3.67
2022-11-05T23:29:00.675Z,3.40
2022-11-05T23:34:03.924Z,4.90
2022-11-05T23:39:08.492Z,3.97
2022-11-05T23:44:40.517Z,3.30
2022-11-05T23:49:43.705Z,3.20
2022-11-05T23:54:48.436Z,3.90
2022-11-05T23:59:51.853Z,3.20
